createdAt,value
2023-05-25T00:00:46.964Z,68.20
2023-05-25T00:05:49.089Z,68.29
2023-05-25T00:10:41.420Z,67.56
2023-05-25T00:15:31.094Z,67.35
2023-05-25T00:20:20.874Z,67.49
2023-05-25T00:25:10.911Z,66.12
2023-05-25T00:30:03.271Z,68.51
2023-05-25T00:34:53.183Z,68.04
2023-05-25T00:39:42.876Z,68.17
2023-05-25T00:44:32.602Z,68.74
2023-05-25T00:49:27.046Z,68.24
2023-05-25T00:54:18.315Z,68.18
2023-05-25T00:59:09.844Z,68.89
2023-05-25T01:04:00.701Z,72.65
2023-05-25T01:08:56.987Z,69.97
2023-05-25T01:13:47.111Z,70.37
2023-05-25T01:18:37.826Z,70.32
2023-05-25T01:23:34.140Z,69.61
2023-05-25T01:28:26.013Z,72.41
2023-05-25T01:33:16.850Z,70.73
2023-05-25T01:38:07.326Z,69.15
2023-05-25T01:42:59.653Z,70.91
2023-05-25T01:47:56.486Z,71.97
2023-05-25T01:52:48.869Z,71.89
2023-05-25T01:57:39.359Z,71.09
2023-05-25T02:02:32.343Z,70.23
2023-05-25T02:07:22.093Z,69.86
2023-05-25T02:12:13.706Z,70.90
2023-05-25T02:17:04.739Z,71.18
2023-05-25T02:21:57.140Z,70.51
2023-05-25T02:26:46.763Z,72.15
2023-05-25T02:31:36.594Z,70.89
2023-05-25T02:36:27.353Z,71.27
2023-05-25T02:41:19.918Z,71.00
2023-05-25T02:46:09.675Z,72.60
2023-05-25T02:51:00.244Z,71.35
2023-05-25T02:55:49.947Z,70.91
2023-05-25T03:00:47.085Z,70.80
2023-05-25T03:05:38.668Z,71.81
2023-05-25T03:10:28.832Z,70.40
2023-05-25T03:15:18.793Z,72.03
2023-05-25T03:20:13.348Z,70.11
2023-05-25T03:25:06.457Z,70.85
2023-05-25T03:29:56.162Z,70.78
2023-05-25T03:34:45.933Z,69.95
2023-05-25T03:39:41.292Z,71.68
2023-05-25T03:44:31.450Z,71.64
2023-05-25T03:49:21.434Z,70.59
2023-05-25T03:54:11.817Z,73.36
2023-05-25T03:59:04.120Z,70.38
2023-05-25T04:03:53.879Z,70.87
2023-05-25T04:08:44.439Z,71.35
2023-05-25T04:13:36.527Z,71.12
2023-05-25T04:18:30.032Z,70.37
2023-05-25T04:23:23.691Z,70.37
2023-05-25T04:28:15.898Z,70.53
2023-05-25T04:33:30.921Z,72.34
2023-05-25T04:38:25.220Z,71.51
2023-05-25T04:43:18.581Z,72.16
2023-05-25T04:48:11.646Z,74.67
2023-05-25T04:53:04.188Z,72.81
2023-05-25T04:57:55.281Z,72.83
2023-05-25T05:02:46.400Z,72.81
2023-05-25T05:07:37.443Z,72.74
2023-05-25T05:12:33.804Z,71.84
2023-05-25T05:17:26.524Z,75.44
2023-05-25T05:22:16.589Z,73.08
2023-05-25T05:27:10.459Z,74.76
2023-05-25T05:32:16.370Z,72.28
2023-05-25T05:37:08.545Z,74.99
2023-05-25T05:42:01.799Z,73.85
2023-05-25T05:46:51.730Z,76.80
2023-05-25T05:51:44.410Z,73.30
2023-05-25T05:56:34.297Z,75.50
2023-05-25T06:01:25.634Z,75.28
2023-05-25T06:06:15.489Z,75.14
2023-05-25T06:11:07.957Z,75.12
2023-05-25T06:15:58.853Z,74.11
2023-05-25T06:20:48.637Z,75.10
2023-05-25T06:25:38.399Z,73.16
2023-05-25T06:30:35.863Z,74.05
2023-05-25T06:35:29.440Z,73.98
2023-05-25T06:40:22.734Z,74.66
2023-05-25T06:45:13.849Z,76.05
2023-05-25T06:50:09.363Z,73.75
2023-05-25T06:54:59.523Z,76.28
2023-05-25T06:59:49.524Z,74.51
2023-05-25T07:04:39.286Z,73.78
2023-05-25T07:09:31.519Z,73.78
2023-05-25T07:14:21.151Z,74.97
2023-05-25T07:19:10.797Z,72.83
2023-05-25T07:24:00.888Z,74.11
2023-05-25T07:28:53.118Z,73.05
2023-05-25T07:33:42.822Z,72.07
2023-05-25T07:38:32.543Z,72.54
2023-05-25T07:43:22.260Z,71.22
2023-05-25T07:48:14.663Z,70.48
2023-05-25T07:53:04.330Z,69.39
2023-05-25T07:57:53.936Z,69.45
2023-05-25T08:02:43.998Z,68.28
2023-05-25T08:07:36.583Z,67.03
2023-05-25T08:12:43.038Z,68.06
2023-05-25T08:17:36.208Z,66.80
2023-05-25T08:22:26.095Z,66.55
2023-05-25T08:27:18.477Z,66.41
2023-05-25T08:32:08.967Z,65.65
2023-05-25T08:37:00.184Z,61.72
2023-05-25T08:41:53.413Z,63.00
2023-05-25T08:46:49.042Z,63.68
2023-05-25T08:51:40.524Z,63.00
2023-05-25T08:56:34.668Z,63.47
2023-05-25T09:01:28.373Z,62.74
2023-05-25T09:06:21.057Z,62.23
2023-05-25T09:11:10.777Z,61.07
2023-05-25T09:16:01.329Z,60.98
2023-05-25T09:20:51.363Z,60.74
2023-05-25T09:25:43.843Z,58.47
2023-05-25T09:30:35.982Z,59.31
2023-05-25T09:35:26.114Z,57.72
2023-05-25T09:40:17.487Z,57.99
2023-05-25T09:45:10.447Z,57.93
2023-05-25T09:50:00.634Z,55.16
2023-05-25T09:54:50.750Z,57.53
2023-05-25T09:59:40.577Z,58.37
2023-05-25T10:04:32.848Z,58.03
2023-05-25T10:09:23.017Z,58.22
2023-05-25T10:14:13.189Z,58.08
2023-05-25T10:19:04.862Z,57.44
2023-05-25T10:24:00.076Z,57.92
2023-05-25T10:28:53.242Z,58.04
2023-05-25T10:33:49.115Z,58.51
2023-05-25T10:38:44.942Z,56.24
2023-05-25T10:43:37.546Z,56.31
2023-05-25T10:48:27.811Z,53.55
2023-05-25T10:53:23.204Z,56.24
2023-05-25T10:58:19.865Z,53.47
2023-05-25T11:03:13.100Z,52.54
2023-05-25T11:08:03.509Z,52.06
2023-05-25T11:12:54.078Z,52.35
2023-05-25T11:18:01.791Z,53.13
2023-05-25T11:22:55.387Z,52.26
2023-05-25T11:27:48.689Z,51.72
2023-05-25T11:32:40.045Z,51.32
2023-05-25T11:37:31.802Z,50.21
2023-05-25T11:42:25.309Z,48.52
2023-05-25T11:47:19.028Z,49.37
2023-05-25T11:52:09.365Z,51.86
2023-05-25T11:57:00.286Z,52.33
2023-05-25T12:02:01.416Z,51.88
2023-05-25T12:06:51.071Z,53.85
2023-05-25T12:11:45.509Z,53.54
2023-05-25T12:16:37.280Z,53.64
2023-05-25T12:21:29.725Z,51.75
2023-05-25T12:26:20.475Z,51.80
2023-05-25T12:31:25.280Z,52.90
2023-05-25T12:36:15.308Z,52.69
2023-05-25T12:41:10.922Z,53.90
2023-05-25T12:46:00.731Z,52.89
2023-05-25T12:51:00.051Z,53.63
2023-05-25T12:55:50.137Z,54.51
2023-05-25T13:00:43.361Z,53.21
2023-05-25T13:05:34.301Z,52.23
2023-05-25T13:10:24.456Z,52.62
2023-05-25T13:15:14.432Z,52.18
2023-05-25T13:20:07.731Z,49.54
2023-05-25T13:24:57.321Z,51.79
2023-05-25T13:29:47.162Z,49.63
2023-05-25T13:34:36.752Z,49.43
2023-05-25T13:39:28.906Z,49.82
2023-05-25T13:44:18.460Z,49.39
2023-05-25T13:49:07.980Z,50.08
2023-05-25T13:53:57.750Z,49.62
2023-05-25T13:58:50.081Z,50.60
2023-05-25T14:03:40.232Z,49.64
2023-05-25T14:08:30.558Z,50.07
2023-05-25T14:13:20.166Z,50.29
2023-05-25T14:18:12.397Z,50.14
2023-05-25T14:23:02.058Z,49.89
2023-05-25T14:27:51.710Z,50.20
2023-05-25T14:32:41.317Z,50.50
2023-05-25T14:37:33.423Z,49.51
2023-05-25T14:42:23.146Z,49.42
2023-05-25T14:47:12.823Z,50.40
2023-05-25T14:52:02.582Z,50.51
2023-05-25T14:56:54.855Z,49.39
2023-05-25T15:01:46.680Z,49.90
2023-05-25T15:06:39.436Z,50.02
2023-05-25T15:11:29.365Z,49.31
2023-05-25T15:16:21.562Z,47.60
2023-05-25T15:21:11.538Z,49.04
2023-05-25T15:26:04.599Z,48.61
2023-05-25T15:30:54.182Z,48.57
2023-05-25T15:35:46.715Z,49.33
2023-05-25T15:40:37.318Z,47.61
2023-05-25T15:45:27.244Z,47.59
2023-05-25T15:50:16.852Z,48.42
2023-05-25T15:55:09.717Z,48.74
2023-05-25T15:59:59.362Z,47.57
2023-05-25T16:04:49.018Z,47.52
2023-05-25T16:09:38.638Z,48.02
2023-05-25T16:14:30.948Z,48.32
2023-05-25T16:19:20.533Z,48.47
2023-05-25T16:24:10.355Z,47.64
2023-05-25T16:28:59.860Z,47.91
2023-05-25T16:33:51.924Z,48.10
2023-05-25T16:38:41.646Z,47.77
2023-05-25T16:43:31.322Z,48.36
2023-05-25T16:48:23.174Z,49.68
2023-05-25T16:53:15.760Z,49.18
2023-05-25T16:58:05.340Z,48.93
2023-05-25T17:02:55.012Z,49.46
2023-05-25T17:07:45.203Z,48.83
2023-05-25T17:12:37.632Z,48.02
2023-05-25T17:17:28.216Z,48.36
2023-05-25T17:22:17.935Z,49.04
2023-05-25T17:27:07.593Z,50.98
2023-05-25T17:31:59.801Z,51.45
2023-05-25T17:36:49.478Z,51.67
2023-05-25T17:41:39.047Z,52.96
2023-05-25T17:46:28.905Z,53.11
2023-05-25T17:51:22.980Z,53.63
2023-05-25T17:56:12.630Z,54.11
2023-05-25T18:01:02.542Z,53.85
2023-05-25T18:05:52.297Z,54.16
2023-05-25T18:10:45.041Z,54.25
2023-05-25T18:15:34.780Z,54.40
2023-05-25T18:20:24.338Z,55.18
2023-05-25T18:25:13.924Z,55.96
2023-05-25T18:30:06.166Z,56.32
2023-05-25T18:34:57.137Z,56.32
2023-05-25T18:39:47.337Z,56.42
2023-05-25T18:44:37.769Z,56.61
2023-05-25T18:49:33.183Z,57.03
2023-05-25T18:54:23.358Z,57.62
2023-05-25T18:59:13.066Z,58.54
2023-05-25T19:04:02.803Z,59.10
2023-05-25T19:08:55.542Z,58.62
2023-05-25T19:13:45.309Z,58.11
2023-05-25T19:18:35.038Z,58.30
2023-05-25T19:23:26.135Z,58.52
2023-05-25T19:28:18.405Z,59.65
2023-05-25T19:33:08.008Z,59.59
2023-05-25T19:37:58.773Z,59.64
2023-05-25T19:42:50.334Z,59.19
2023-05-25T19:47:42.748Z,59.69
2023-05-25T19:52:32.584Z,60.86
2023-05-25T19:57:22.796Z,60.85
2023-05-25T20:02:14.872Z,60.77
2023-05-25T20:07:07.140Z,60.99
2023-05-25T20:11:56.842Z,61.97
2023-05-25T20:16:46.585Z,61.83
2023-05-25T20:21:37.393Z,61.88
2023-05-25T20:26:30.414Z,62.38
2023-05-25T20:31:19.947Z,62.02
2023-05-25T20:36:09.673Z,62.77
2023-05-25T20:40:59.261Z,62.06
2023-05-25T20:45:51.654Z,62.57
2023-05-25T20:50:41.175Z,63.34
2023-05-25T20:55:30.768Z,63.55
2023-05-25T21:00:21.790Z,63.74
2023-05-25T21:05:14.265Z,63.90
2023-05-25T21:10:04.377Z,64.13
2023-05-25T21:14:54.489Z,63.54
2023-05-25T21:19:44.125Z,63.52
2023-05-25T21:24:36.657Z,63.48
2023-05-25T21:29:26.232Z,63.58
2023-05-25T21:34:15.895Z,63.99
2023-05-25T21:39:06.188Z,65.36
2023-05-25T21:43:58.761Z,64.64
2023-05-25T21:48:48.370Z,64.59
2023-05-25T21:53:38.010Z,66.44
2023-05-25T21:58:27.651Z,65.43
2023-05-25T22:03:19.834Z,64.74
2023-05-25T22:08:09.661Z,66.38
2023-05-25T22:12:59.609Z,65.59
2023-05-25T22:17:49.241Z,64.55
2023-05-25T22:22:41.625Z,64.20
2023-05-25T22:27:31.576Z,65.41
2023-05-25T22:32:21.340Z,65.61
2023-05-25T22:37:11.974Z,64.66
2023-05-25T22:42:04.195Z,65.73
2023-05-25T22:46:54.317Z,65.33
2023-05-25T22:51:44.063Z,65.32
2023-05-25T22:56:34.096Z,65.75
2023-05-25T23:01:27.082Z,65.21
2023-05-25T23:06:16.959Z,65.24
2023-05-25T23:11:06.616Z,65.77
2023-05-25T23:15:56.357Z,65.81
2023-05-25T23:20:48.898Z,65.45
2023-05-25T23:25:39.288Z,66.19
2023-05-25T23:30:29.186Z,65.93
2023-05-25T23:35:18.846Z,66.75
2023-05-25T23:40:12.218Z,67.67
2023-05-25T23:45:01.790Z,67.40
2023-05-25T23:49:51.476Z,66.69
2023-05-25T23:54:41.086Z,66.34
2023-05-25T23:59:33.342Z,67.92
